Time;durP1;ratioP1;P1;durP2;ratioP2;P2;SDS_P1;SDS_P2;PMS_P1;PMS_P2;Temp;Humidity;BMP_temperature;BMP_pressure;BME280_temperature;BME280_humidity;BME280_pressure;Samples;Min_cycle;Max_cycle;Signal;HPM_P1;HPM_P2
2023/05/31 00:00:05;;;;;;;3.08;1.08;;;11.00;99.90;;;;;;4912233;29;20522;-35
2023/05/31 00:02:31;;;;;;;5.55;1.35;;;10.90;99.90;;;;;;4906228;29;20524;-35
2023/05/31 00:04:56;;;;;;;4.53;1.48;;;10.90;99.90;;;;;;4910673;29;20048;-35
2023/05/31 00:07:22;;;;;;;2.92;1.30;;;10.80;99.90;;;;;;4911932;29;20056;-35
2023/05/31 00:09:48;;;;;;;3.33;1.20;;;10.80;99.90;;;;;;4911173;29;20411;-35
2023/05/31 00:12:13;;;;;;;3.70;1.10;;;10.80;99.90;;;;;;4911120;29;20051;-35
2023/05/31 00:14:39;;;;;;;4.22;1.58;;;10.80;99.90;;;;;;4911224;29;20151;-36
2023/05/31 00:17:05;;;;;;;3.80;1.35;;;10.80;99.90;;;;;;4910233;29;20099;-35
2023/05/31 00:19:30;;;;;;;3.92;1.20;;;10.70;99.90;;;;;;4911268;29;20040;-35
2023/05/31 00:21:56;;;;;;;5.28;1.35;;;10.70;99.90;;;;;;4906467;29;20068;-35
2023/05/31 00:24:22;;;;;;;4.47;1.52;;;10.70;99.90;;;;;;4905750;29;20067;-35
2023/05/31 00:26:48;;;;;;;3.10;1.35;;;10.60;99.90;;;;;;4908149;29;20399;-35
2023/05/31 00:29:13;;;;;;;3.10;1.33;;;10.70;99.90;;;;;;4903944;29;20067;-35
2023/05/31 00:31:40;;;;;;;5.25;1.45;;;10.60;99.90;;;;;;4905689;29;20056;-35
2023/05/31 00:34:06;;;;;;;6.30;1.58;;;10.60;99.90;;;;;;4897554;29;20056;-35
2023/05/31 00:36:32;;;;;;;3.97;1.33;;;10.60;99.90;;;;;;4904630;29;20131;-35
2023/05/31 00:38:58;;;;;;;3.88;1.83;;;10.60;99.90;;;;;;4907546;29;20241;-35
2023/05/31 00:41:25;;;;;;;3.58;1.38;;;10.60;99.90;;;;;;4909723;29;20055;-35
2023/05/31 00:43:50;;;;;;;3.67;1.63;;;10.60;99.90;;;;;;4902789;29;20068;-35
2023/05/31 00:46:27;;;;;;;4.13;1.75;;;10.60;99.90;;;;;;4910888;29;20079;-35
2023/05/31 00:48:55;;;;;;;3.80;1.23;;;10.60;99.90;;;;;;4901688;29;20056;-35
2023/05/31 00:51:21;;;;;;;5.13;1.52;;;10.60;99.90;;;;;;4909830;29;20135;-35
2023/05/31 00:53:47;;;;;;;3.90;1.23;;;10.50;99.90;;;;;;4895884;29;20052;-35
2023/05/31 00:56:14;;;;;;;4.03;1.60;;;10.50;99.90;;;;;;4907200;29;22785;-35
2023/05/31 00:58:45;;;;;;;4.13;1.65;;;10.50;99.90;;;;;;4903002;29;20076;-35
2023/05/31 01:01:13;;;;;;;5.00;1.25;;;10.40;99.90;;;;;;4905180;29;20545;-35
2023/05/31 01:03:40;;;;;;;5.10;1.65;;;10.40;99.90;;;;;;4907041;29;20111;-35
2023/05/31 01:06:05;;;;;;;5.35;1.65;;;10.40;99.90;;;;;;4907780;29;20044;-35
2023/05/31 01:08:31;;;;;;;2.92;1.42;;;10.40;99.90;;;;;;4905773;29;20095;-35
2023/05/31 01:11:26;;;;;;;5.00;1.80;;;10.40;99.90;;;;;;4903733;29;20044;-35
2023/05/31 01:13:58;;;;;;;6.05;1.38;;;10.40;99.90;;;;;;4904967;29;20513;-35
2023/05/31 01:16:33;;;;;;;4.40;1.42;;;10.30;99.90;;;;;;4903296;29;20062;-35
2023/05/31 01:19:06;;;;;;;3.63;1.58;;;10.30;99.90;;;;;;4900544;29;20056;-35
2023/05/31 01:22:03;;;;;;;3.38;1.40;;;10.30;99.90;;;;;;4902336;29;20059;-35
2023/05/31 01:24:43;;;;;;;4.10;1.48;;;10.30;99.90;;;;;;4906273;29;20064;-35
2023/05/31 01:27:10;;;;;;;4.78;1.77;;;10.30;99.90;;;;;;4903301;29;20135;-34
2023/05/31 01:29:39;;;;;;;3.90;1.67;;;10.30;99.90;;;;;;4908697;29;20199;-35
2023/05/31 01:32:05;;;;;;;4.53;1.77;;;10.20;99.90;;;;;;4906444;29;20067;-35
2023/05/31 01:34:31;;;;;;;5.07;1.88;;;10.20;99.90;;;;;;4907586;29;21793;-35
2023/05/31 01:36:57;;;;;;;4.13;2.03;;;10.20;99.90;;;;;;4905194;29;20048;-35
2023/05/31 01:39:22;;;;;;;9.02;1.98;;;10.20;99.90;;;;;;4907337;29;20075;-35
2023/05/31 01:41:50;;;;;;;6.20;1.70;;;10.20;99.90;;;;;;4904502;29;20535;-35
2023/05/31 01:44:18;;;;;;;4.68;1.73;;;10.10;99.90;;;;;;4912454;29;20082;-35
2023/05/31 01:46:45;;;;;;;5.60;1.63;;;10.10;99.90;;;;;;4907157;29;20083;-35
2023/05/31 01:49:12;;;;;;;3.50;1.65;;;10.10;99.90;;;;;;4905311;29;20056;-34
2023/05/31 01:51:40;;;;;;;4.82;1.85;;;10.10;99.90;;;;;;4905915;29;20060;-35
2023/05/31 01:54:06;;;;;;;3.10;1.67;;;10.10;99.90;;;;;;4904314;29;20048;-35
2023/05/31 01:56:32;;;;;;;7.05;1.85;;;10.00;99.90;;;;;;4906006;29;20259;-35
2023/05/31 01:58:59;;;;;;;5.43;1.75;;;10.00;99.90;;;;;;4905231;29;20052;-35
2023/05/31 02:01:25;;;;;;;6.70;1.48;;;10.00;99.90;;;;;;4898860;29;20056;-35
2023/05/31 02:03:51;;;;;;;4.95;1.77;;;10.00;99.90;;;;;;4898468;29;20048;-35
2023/05/31 02:06:17;;;;;;;6.10;1.55;;;10.00;99.90;;;;;;4899732;29;20063;-35
2023/05/31 02:08:43;;;;;;;3.58;1.52;;;10.00;99.90;;;;;;4898055;29;20542;-35
2023/05/31 02:11:09;;;;;;;4.65;1.48;;;9.90;99.90;;;;;;4901317;29;20147;-35
2023/05/31 02:13:35;;;;;;;4.57;1.92;;;9.90;99.90;;;;;;4897596;29;20491;-35
2023/05/31 02:16:01;;;;;;;6.13;1.85;;;9.90;99.90;;;;;;4898670;29;20119;-35
2023/05/31 02:18:27;;;;;;;4.43;1.55;;;9.90;99.90;;;;;;4898429;29;20048;-35
2023/05/31 02:20:54;;;;;;;5.97;1.63;;;9.80;99.90;;;;;;4901179;29;20055;-35
2023/05/31 02:23:20;;;;;;;6.05;2.08;;;9.80;99.90;;;;;;4883897;29;20055;-35
2023/05/31 02:25:46;;;;;;;5.75;1.67;;;9.80;99.90;;;;;;4876797;29;20079;-36
2023/05/31 02:28:13;;;;;;;4.97;1.88;;;9.80;99.90;;;;;;4897148;29;20055;-35
2023/05/31 02:30:38;;;;;;;4.10;1.77;;;9.80;99.90;;;;;;4900117;29;20052;-35
2023/05/31 02:33:04;;;;;;;7.47;2.20;;;9.70;99.90;;;;;;4898076;29;20441;-35
2023/05/31 02:35:30;;;;;;;5.85;1.85;;;9.70;99.90;;;;;;4902513;29;20119;-35
2023/05/31 02:37:56;;;;;;;5.63;2.15;;;9.60;99.90;;;;;;4901119;29;20052;-35
2023/05/31 02:40:22;;;;;;;4.55;1.50;;;9.60;99.90;;;;;;4905082;29;20072;-35
2023/05/31 02:42:47;;;;;;;4.35;1.75;;;9.70;99.90;;;;;;4904957;29;20056;-35
2023/05/31 02:45:13;;;;;;;4.20;1.80;;;9.70;99.90;;;;;;4904726;29;20052;-35
2023/05/31 02:47:39;;;;;;;6.18;2.30;;;9.70;99.90;;;;;;4908722;29;20051;-35
2023/05/31 02:50:09;;;;;;;5.40;1.40;;;9.70;99.90;;;;;;4904372;29;20510;-35
2023/05/31 02:52:36;;;;;;;3.92;1.50;;;9.60;99.90;;;;;;4906751;29;20052;-34
2023/05/31 02:55:02;;;;;;;6.85;1.88;;;9.50;99.90;;;;;;4904486;29;20056;-35
2023/05/31 02:57:28;;;;;;;4.05;1.60;;;9.60;99.90;;;;;;4905968;29;20076;-35
2023/05/31 03:00:12;;;;;;;6.35;2.22;;;9.60;99.90;;;;;;4911795;29;20055;-35
2023/05/31 03:02:39;;;;;;;4.15;1.90;;;9.60;99.90;;;;;;4905775;29;20084;-35
2023/05/31 03:05:06;;;;;;;4.82;1.80;;;9.70;99.90;;;;;;4905876;29;20114;-35
2023/05/31 03:07:32;;;;;;;6.22;2.53;;;9.60;99.90;;;;;;4907040;29;20847;-35
2023/05/31 03:09:58;;;;;;;5.70;2.33;;;9.60;99.90;;;;;;4913158;29;20044;-35
2023/05/31 03:12:24;;;;;;;7.25;2.17;;;9.60;99.90;;;;;;4905820;29;20520;-34
2023/05/31 03:14:49;;;;;;;6.70;2.35;;;9.60;99.90;;;;;;4909319;29;20544;-35
2023/05/31 03:17:15;;;;;;;6.53;2.80;;;9.60;99.90;;;;;;4910339;29;20059;-35
2023/05/31 03:19:41;;;;;;;6.72;2.03;;;9.60;99.90;;;;;;4908590;29;20059;-35
2023/05/31 03:22:06;;;;;;;5.10;2.03;;;9.60;99.90;;;;;;4907540;29;20139;-35
2023/05/31 03:24:32;;;;;;;5.15;1.90;;;9.60;99.90;;;;;;4903074;29;20067;-35
2023/05/31 03:26:57;;;;;;;5.40;2.38;;;9.60;99.90;;;;;;4911479;29;20458;-35
2023/05/31 03:29:23;;;;;;;8.35;3.50;;;9.70;99.90;;;;;;4907751;29;20052;-34
2023/05/31 03:31:49;;;;;;;4.88;2.10;;;9.60;99.90;;;;;;4908992;29;20056;-35
2023/05/31 03:34:15;;;;;;;6.95;3.17;;;9.60;99.90;;;;;;4911072;29;20070;-34
2023/05/31 03:36:41;;;;;;;8.40;2.42;;;9.60;99.90;;;;;;4912429;29;20051;-35
2023/05/31 03:39:07;;;;;;;6.38;2.05;;;9.60;99.90;;;;;;4909800;29;20139;-35
2023/05/31 03:41:32;;;;;;;4.00;2.05;;;9.60;99.90;;;;;;4909505;29;20051;-35
2023/05/31 03:43:58;;;;;;;7.47;2.85;;;9.60;99.90;;;;;;4912695;29;20060;-35
2023/05/31 03:46:24;;;;;;;7.07;2.30;;;9.60;99.90;;;;;;4911814;29;20581;-34
2023/05/31 03:48:50;;;;;;;8.25;2.55;;;9.60;99.90;;;;;;4913320;29;20051;-35
2023/05/31 03:51:16;;;;;;;8.40;2.45;;;9.60;99.90;;;;;;4912219;29;20177;-35
2023/05/31 03:53:42;;;;;;;6.15;2.70;;;9.60;99.90;;;;;;4912143;29;20091;-35
2023/05/31 03:56:07;;;;;;;4.55;2.17;;;9.60;99.90;;;;;;4914086;29;20048;-34
2023/05/31 03:58:33;;;;;;;5.50;1.88;;;9.60;99.90;;;;;;4911492;29;20059;-35
2023/05/31 04:00:59;;;;;;;9.75;2.92;;;9.70;99.90;;;;;;4912053;29;20513;-35
2023/05/31 04:03:25;;;;;;;5.05;2.33;;;9.70;99.90;;;;;;4910511;29;20056;-35
2023/05/31 04:05:50;;;;;;;6.75;2.33;;;9.70;99.90;;;;;;4911279;29;20067;-35
2023/05/31 04:08:16;;;;;;;6.38;3.13;;;9.70;99.90;;;;;;4911115;29;20067;-35
2023/05/31 04:10:42;;;;;;;7.65;2.67;;;9.80;99.90;;;;;;4911685;29;20058;-35
2023/05/31 04:13:08;;;;;;;7.93;2.55;;;9.70;99.90;;;;;;4907965;29;20052;-35
2023/05/31 04:15:33;;;;;;;6.80;2.83;;;9.80;99.90;;;;;;4908182;29;20048;-35
2023/05/31 04:17:59;;;;;;;7.55;2.22;;;9.80;99.90;;;;;;4905642;29;20255;-35
2023/05/31 04:20:25;;;;;;;8.60;2.90;;;9.80;99.90;;;;;;4911689;29;20059;-35
2023/05/31 04:22:50;;;;;;;5.70;2.50;;;9.90;99.90;;;;;;4893459;29;20055;-35
2023/05/31 04:25:17;;;;;;;8.27;2.60;;;9.90;99.90;;;;;;4919550;29;20044;-35
2023/05/31 04:27:43;;;;;;;8.52;2.10;;;9.90;99.90;;;;;;4912325;29;20091;-35
2023/05/31 04:30:09;;;;;;;7.07;2.90;;;10.00;99.90;;;;;;4915816;29;20056;-35
2023/05/31 04:32:34;;;;;;;6.85;2.47;;;10.00;99.90;;;;;;4908626;29;20371;-34
2023/05/31 04:35:03;;;;;;;8.18;2.67;;;10.00;99.90;;;;;;4916276;29;20442;-35
2023/05/31 04:37:32;;;;;;;7.07;2.20;;;10.10;99.90;;;;;;4907959;29;20063;-35
2023/05/31 04:39:59;;;;;;;7.80;2.72;;;10.10;99.90;;;;;;4911724;29;20055;-35
2023/05/31 04:42:26;;;;;;;9.18;2.80;;;10.20;99.90;;;;;;4912077;29;20544;-35
2023/05/31 04:45:01;;;;;;;6.80;2.70;;;10.20;99.90;;;;;;4910668;29;20455;-35
2023/05/31 04:47:32;;;;;;;10.10;2.83;;;10.30;99.90;;;;;;4913791;29;20055;-35
2023/05/31 04:49:58;;;;;;;7.35;2.60;;;10.30;99.90;;;;;;4911039;29;20056;-35
2023/05/31 04:52:26;;;;;;;8.60;2.88;;;10.40;99.90;;;;;;4915988;29;20062;-35
2023/05/31 04:54:53;;;;;;;9.23;2.47;;;10.40;99.90;;;;;;4913741;29;20419;-35
2023/05/31 04:57:19;;;;;;;8.13;2.90;;;10.50;99.90;;;;;;4913566;29;20044;-35
2023/05/31 04:59:45;;;;;;;9.80;2.97;;;10.50;99.90;;;;;;4921705;29;20562;-35
2023/05/31 05:02:10;;;;;;;6.93;2.25;;;10.50;99.90;;;;;;4919588;29;20102;-35
2023/05/31 05:04:36;;;;;;;8.73;3.17;;;10.60;99.90;;;;;;4913612;29;20418;-34
2023/05/31 05:07:02;;;;;;;9.30;3.53;;;10.70;99.90;;;;;;4914819;29;20063;-35
2023/05/31 05:09:28;;;;;;;6.40;2.33;;;10.70;99.90;;;;;;4915766;29;20088;-35
2023/05/31 05:11:54;;;;;;;7.10;3.05;;;10.80;99.90;;;;;;4914342;29;20526;-34
2023/05/31 05:14:20;;;;;;;7.72;3.15;;;10.90;99.90;;;;;;4913026;29;20047;-35
2023/05/31 05:16:45;;;;;;;7.50;2.78;;;10.90;99.90;;;;;;4918850;29;20051;-34
2023/05/31 05:19:11;;;;;;;7.88;2.90;;;11.00;99.90;;;;;;4912185;29;20052;-35
2023/05/31 05:21:37;;;;;;;8.27;3.53;;;11.10;99.90;;;;;;4911229;29;20087;-35
2023/05/31 05:24:02;;;;;;;10.05;2.95;;;11.10;99.90;;;;;;4908547;29;20067;-35
2023/05/31 05:26:28;;;;;;;7.35;2.78;;;11.20;99.90;;;;;;4907091;29;20056;-35
2023/05/31 05:28:54;;;;;;;11.80;3.28;;;11.30;99.90;;;;;;4906567;29;20395;-35
2023/05/31 05:31:19;;;;;;;9.45;3.28;;;11.30;99.90;;;;;;4908379;29;20056;-35
2023/05/31 05:33:45;;;;;;;13.43;3.95;;;11.40;99.90;;;;;;4908739;29;20079;-35
2023/05/31 05:36:11;;;;;;;8.73;3.05;;;11.50;99.90;;;;;;4904703;29;20139;-35
2023/05/31 05:38:36;;;;;;;7.68;2.90;;;11.50;99.90;;;;;;4905134;29;20052;-35
2023/05/31 05:41:02;;;;;;;11.85;4.35;;;11.60;99.90;;;;;;4895473;29;20114;-35
2023/05/31 05:43:30;;;;;;;8.90;3.00;;;11.70;99.90;;;;;;4910198;29;20059;-35
2023/05/31 05:45:55;;;;;;;10.82;3.55;;;11.80;99.90;;;;;;4905748;29;20060;-35
2023/05/31 05:48:21;;;;;;;6.00;2.95;;;11.90;99.90;;;;;;4904001;29;20568;-35
2023/05/31 05:50:47;;;;;;;8.75;3.38;;;12.00;99.90;;;;;;4897489;29;21966;-35
2023/05/31 05:53:13;;;;;;;10.23;3.55;;;12.10;99.90;;;;;;4909011;29;20047;-35
2023/05/31 05:55:38;;;;;;;7.90;3.33;;;12.20;99.90;;;;;;4907473;29;20044;-35
2023/05/31 05:58:04;;;;;;;8.38;3.50;;;12.30;99.90;;;;;;4907712;29;20052;-35
2023/05/31 06:00:31;;;;;;;11.25;4.35;;;12.40;99.90;;;;;;4907312;29;20067;-35
2023/05/31 06:02:57;;;;;;;8.55;3.80;;;12.50;99.90;;;;;;4898226;29;20112;-35
2023/05/31 06:05:25;;;;;;;6.05;2.88;;;12.50;99.90;;;;;;4905452;29;20043;-35
2023/05/31 06:07:52;;;;;;;8.98;3.63;;;12.70;99.90;;;;;;4900216;29;20103;-35
2023/05/31 06:10:17;;;;;;;7.47;3.83;;;12.70;99.90;;;;;;4900389;29;20048;-35
2023/05/31 06:12:43;;;;;;;10.48;3.25;;;12.80;99.90;;;;;;4900464;29;20391;-35
2023/05/31 06:15:09;;;;;;;9.95;3.50;;;12.90;99.90;;;;;;4894596;29;20052;-35
2023/05/31 06:17:35;;;;;;;6.47;3.40;;;13.00;99.90;;;;;;4896248;29;20055;-35
2023/05/31 06:20:02;;;;;;;7.25;2.60;;;13.10;99.90;;;;;;4893533;29;20185;-35
2023/05/31 06:22:28;;;;;;;9.18;3.03;;;13.10;99.90;;;;;;4896032;29;20142;-35
2023/05/31 06:24:57;;;;;;;9.13;3.28;;;13.20;99.90;;;;;;4897581;29;20147;-35
2023/05/31 06:27:23;;;;;;;6.50;2.63;;;13.40;99.90;;;;;;4897914;29;20076;-35
2023/05/31 06:29:54;;;;;;;6.55;2.50;;;13.40;99.90;;;;;;4896809;29;20509;-35
2023/05/31 06:32:21;;;;;;;9.27;3.08;;;13.50;99.90;;;;;;4896373;29;20060;-35
2023/05/31 06:34:46;;;;;;;8.65;3.13;;;13.60;99.90;;;;;;4898837;29;20052;-34
2023/05/31 06:37:13;;;;;;;8.38;3.05;;;13.70;99.90;;;;;;4904098;29;20055;-35
2023/05/31 06:39:39;;;;;;;9.35;2.75;;;13.80;99.90;;;;;;4901186;29;20055;-35
2023/05/31 06:42:06;;;;;;;6.68;2.65;;;13.90;99.90;;;;;;4885620;29;20056;-35
2023/05/31 06:44:32;;;;;;;7.93;2.58;;;14.00;99.90;;;;;;4904795;29;20084;-35
2023/05/31 06:46:57;;;;;;;8.75;2.70;;;14.10;99.90;;;;;;4896710;29;20060;-35
2023/05/31 06:49:23;;;;;;;5.78;2.53;;;14.10;99.90;;;;;;4901982;29;20553;-35
2023/05/31 06:51:49;;;;;;;6.13;2.33;;;14.20;99.90;;;;;;4894542;29;20052;-35
2023/05/31 06:54:15;;;;;;;6.53;2.58;;;14.30;99.90;;;;;;4895173;29;20199;-35
2023/05/31 06:56:40;;;;;;;6.82;3.00;;;14.40;99.90;;;;;;4904430;29;20115;-36
2023/05/31 06:59:06;;;;;;;5.20;2.60;;;14.50;99.90;;;;;;4895225;29;20055;-35
2023/05/31 07:01:32;;;;;;;9.95;2.80;;;14.70;99.90;;;;;;4901927;29;20064;-35
2023/05/31 07:03:58;;;;;;;4.97;2.40;;;14.70;99.90;;;;;;4905253;29;20048;-35
2023/05/31 07:06:25;;;;;;;6.25;2.90;;;14.90;99.90;;;;;;4906769;29;20131;-35
2023/05/31 07:08:51;;;;;;;7.03;2.58;;;15.00;99.90;;;;;;4906946;29;20056;-35
2023/05/31 07:11:17;;;;;;;8.95;2.35;;;15.10;99.90;;;;;;4902081;29;20075;-35
2023/05/31 07:13:43;;;;;;;6.45;2.15;;;15.20;99.90;;;;;;4901309;29;20076;-35
2023/05/31 07:16:08;;;;;;;7.35;2.42;;;15.30;99.90;;;;;;4916771;29;20066;-34
2023/05/31 07:18:34;;;;;;;7.57;2.28;;;15.40;99.90;;;;;;4907912;29;20071;-34
2023/05/31 07:21:00;;;;;;;11.95;2.85;;;15.50;99.90;;;;;;4905545;29;20054;-34
2023/05/31 07:23:26;;;;;;;6.07;2.20;;;15.60;99.90;;;;;;4909850;29;20064;-35
2023/05/31 07:25:51;;;;;;;5.97;2.58;;;15.70;99.90;;;;;;4914006;29;20135;-35
2023/05/31 07:28:17;;;;;;;7.05;2.50;;;15.80;99.90;;;;;;4902225;29;20048;-35
2023/05/31 07:30:43;;;;;;;6.53;2.00;;;15.90;99.90;;;;;;4910041;29;20411;-34
2023/05/31 07:33:08;;;;;;;7.18;2.42;;;16.00;99.90;;;;;;4902139;29;20055;-35
2023/05/31 07:35:34;;;;;;;8.43;2.75;;;16.00;99.90;;;;;;4910168;29;20052;-34
2023/05/31 07:37:59;;;;;;;8.02;2.30;;;16.10;99.90;;;;;;4901340;29;20060;-35
2023/05/31 07:40:25;;;;;;;9.48;2.17;;;16.20;99.90;;;;;;4900349;29;20055;-35
2023/05/31 07:42:51;;;;;;;6.68;2.70;;;16.40;99.90;;;;;;4903587;29;20056;-35
2023/05/31 07:45:16;;;;;;;4.53;1.88;;;16.50;99.90;;;;;;4908689;29;20055;-35
2023/05/31 07:47:42;;;;;;;7.32;2.22;;;16.50;99.90;;;;;;4909624;29;20107;-35
2023/05/31 07:50:08;;;;;;;7.38;2.40;;;16.60;99.90;;;;;;4897482;29;20166;-35
2023/05/31 07:52:33;;;;;;;6.07;2.30;;;16.70;99.90;;;;;;4905711;29;20482;-35
2023/05/31 07:54:59;;;;;;;4.50;2.03;;;16.90;99.90;;;;;;4902394;29;20498;-35
2023/05/31 07:57:25;;;;;;;6.88;2.55;;;17.00;99.90;;;;;;4904871;29;20055;-34
2023/05/31 07:59:50;;;;;;;7.40;2.38;;;17.10;99.90;;;;;;4903484;29;20538;-34
2023/05/31 08:02:16;;;;;;;6.32;2.28;;;17.20;99.90;;;;;;4900998;29;21031;-35
2023/05/31 08:04:43;;;;;;;6.07;2.53;;;17.20;99.90;;;;;;4896698;29;20056;-34
2023/05/31 08:07:09;;;;;;;5.63;2.20;;;17.20;99.90;;;;;;4898717;29;20068;-35
2023/05/31 08:09:35;;;;;;;5.00;2.65;;;17.30;99.90;;;;;;4895366;29;20135;-34
2023/05/31 08:12:02;;;;;;;8.10;2.50;;;17.40;99.90;;;;;;4902215;29;20417;-35
2023/05/31 08:14:28;;;;;;;5.32;1.98;;;17.40;99.90;;;;;;4901054;29;20056;-34
2023/05/31 08:16:54;;;;;;;5.93;2.22;;;17.50;99.90;;;;;;4896979;29;20054;-35
2023/05/31 08:19:21;;;;;;;6.32;2.28;;;17.60;99.90;;;;;;4897091;29;20061;-34
2023/05/31 08:21:46;;;;;;;5.63;2.10;;;17.60;99.90;;;;;;4896771;29;20182;-34
2023/05/31 08:24:12;;;;;;;8.23;3.22;;;17.70;99.90;;;;;;4902025;29;20473;-34
2023/05/31 08:26:38;;;;;;;6.75;2.42;;;17.80;99.90;;;;;;4891879;29;20104;-35
2023/05/31 08:29:04;;;;;;;9.30;1.80;;;17.90;99.90;;;;;;4894412;29;20135;-34
2023/05/31 08:31:29;;;;;;;12.93;2.40;;;18.00;99.90;;;;;;4897915;29;20059;-34
2023/05/31 08:33:57;;;;;;;38.78;11.75;;;18.10;99.90;;;;;;4897599;29;20087;-34
2023/05/31 08:36:23;;;;;;;12.07;4.20;;;18.20;99.90;;;;;;4892056;29;20051;-34
2023/05/31 08:38:49;;;;;;;10.02;3.20;;;18.30;99.90;;;;;;4901248;29;20518;-34
2023/05/31 08:41:16;;;;;;;9.80;3.28;;;18.40;99.90;;;;;;4898024;29;20080;-33
2023/05/31 08:43:42;;;;;;;6.03;2.15;;;18.40;99.90;;;;;;4894893;29;20161;-34
2023/05/31 08:46:08;;;;;;;9.48;2.22;;;18.50;99.90;;;;;;4888696;29;20063;-33
2023/05/31 08:48:38;;;;;;;5.45;1.77;;;18.60;99.90;;;;;;4898709;29;20384;-34
2023/05/31 08:51:06;;;;;;;5.20;2.05;;;18.60;99.90;;;;;;4901210;29;20060;-34
2023/05/31 08:53:33;;;;;;;7.63;2.08;;;18.70;99.90;;;;;;4903520;29;20052;-33
2023/05/31 08:56:01;;;;;;;4.90;1.75;;;18.80;99.90;;;;;;4899563;29;20052;-33
2023/05/31 08:58:28;;;;;;;7.28;2.65;;;18.90;99.90;;;;;;4894594;29;20094;-33
2023/05/31 09:00:54;;;;;;;4.95;2.10;;;19.00;99.90;;;;;;4901896;29;20063;-33
2023/05/31 09:03:22;;;;;;;7.05;1.90;;;19.20;99.90;;;;;;4896879;29;21802;-33
2023/05/31 09:05:48;;;;;;;7.22;2.80;;;19.20;99.90;;;;;;4896273;29;20056;-34
2023/05/31 09:08:13;;;;;;;7.35;2.22;;;19.30;99.90;;;;;;4892034;29;20058;-33
2023/05/31 09:10:40;;;;;;;6.72;2.33;;;19.40;99.90;;;;;;4897299;29;20060;-33
2023/05/31 09:13:06;;;;;;;11.05;2.80;;;19.50;99.90;;;;;;4901502;29;20510;-34
2023/05/31 09:15:35;;;;;;;7.68;2.53;;;19.60;99.90;;;;;;4895763;29;20060;-35
2023/05/31 09:18:14;;;;;;;7.65;2.17;;;19.70;99.90;;;;;;4892201;29;20047;-34
2023/05/31 09:20:39;;;;;;;6.22;2.45;;;19.80;99.90;;;;;;4903699;29;20056;-34
2023/05/31 09:23:07;;;;;;;6.05;1.92;;;19.90;99.90;;;;;;4899338;29;20048;-34
2023/05/31 09:25:46;;;;;;;5.15;1.95;;;20.00;99.90;;;;;;4906315;29;20467;-35
2023/05/31 09:28:12;;;;;;;5.00;2.10;;;20.00;99.90;;;;;;4902882;29;20389;-36
2023/05/31 09:30:38;;;;;;;6.75;2.15;;;20.20;99.90;;;;;;4901674;29;20533;-36
2023/05/31 09:33:04;;;;;;;7.00;2.03;;;20.30;99.90;;;;;;4902677;29;20060;-35
2023/05/31 09:35:30;;;;;;;6.63;2.42;;;20.40;99.90;;;;;;4902236;29;20130;-35
2023/05/31 09:37:56;;;;;;;6.30;2.17;;;20.50;99.90;;;;;;4902279;29;20087;-35
2023/05/31 09:40:26;;;;;;;4.28;1.83;;;20.60;99.90;;;;;;4899701;29;20107;-35
2023/05/31 09:42:53;;;;;;;6.10;1.73;;;20.70;99.90;;;;;;4901974;29;20056;-35
2023/05/31 09:45:20;;;;;;;4.40;2.08;;;20.80;99.90;;;;;;4901770;29;20052;-35
2023/05/31 09:47:46;;;;;;;6.90;1.83;;;20.80;99.90;;;;;;4903366;29;20798;-35
2023/05/31 09:50:17;;;;;;;5.38;1.73;;;20.90;99.90;;;;;;4902261;29;20044;-35
2023/05/31 09:52:47;;;;;;;3.70;1.77;;;21.00;99.90;;;;;;4903518;29;21293;-34
2023/05/31 09:55:15;;;;;;;7.63;1.98;;;21.00;99.90;;;;;;4902094;29;20044;-34
2023/05/31 09:57:43;;;;;;;5.05;1.52;;;21.10;99.90;;;;;;4901360;29;20546;-34
2023/05/31 10:00:17;;;;;;;6.95;1.95;;;21.30;99.90;;;;;;4900252;29;20051;-35
2023/05/31 10:02:43;;;;;;;6.38;2.33;;;21.30;99.90;;;;;;4896579;29;20116;-35
2023/05/31 10:05:11;;;;;;;9.05;2.28;;;21.30;99.90;;;;;;4903194;29;20056;-35
2023/05/31 10:07:47;;;;;;;5.30;2.00;;;21.40;99.90;;;;;;4902892;29;20490;-34
2023/05/31 10:10:13;;;;;;;7.30;2.78;;;21.50;99.90;;;;;;4905571;29;20056;-33
2023/05/31 10:12:53;;;;;;;5.53;1.85;;;21.70;99.90;;;;;;4904199;29;20048;-34
2023/05/31 10:15:24;;;;;;;6.13;2.22;;;21.90;99.90;;;;;;4906466;29;20194;-33
2023/05/31 10:18:07;;;;;;;5.55;2.10;;;22.00;99.90;;;;;;4905476;29;20178;-34
2023/05/31 10:20:46;;;;;;;10.00;2.40;;;22.00;99.90;;;;;;4905277;29;20144;-33
2023/05/31 10:23:20;;;;;;;4.97;1.70;;;22.00;99.90;;;;;;4904146;29;20052;-35
2023/05/31 10:26:01;;;;;;;5.25;2.47;;;22.10;99.90;;;;;;4906085;29;20084;-35
2023/05/31 10:28:31;;;;;;;5.15;1.75;;;22.20;99.90;;;;;;4910094;29;20052;-35
2023/05/31 10:31:00;;;;;;;4.50;1.95;;;22.40;99.90;;;;;;4904771;29;20107;-35
2023/05/31 10:33:30;;;;;;;6.03;1.80;;;22.50;99.90;;;;;;4910188;29;20538;-34
2023/05/31 10:35:58;;;;;;;5.00;2.28;;;22.60;99.90;;;;;;4907076;29;20056;-36
2023/05/31 10:38:35;;;;;;;8.02;2.65;;;22.60;99.90;;;;;;4909942;29;20115;-35
2023/05/31 10:41:08;;;;;;;6.13;2.17;;;22.60;99.90;;;;;;4906731;29;20065;-35
2023/05/31 10:43:46;;;;;;;7.57;2.33;;;22.70;99.90;;;;;;4901216;29;20102;-36
2023/05/31 10:46:25;;;;;;;6.60;2.20;;;22.70;99.90;;;;;;4901099;29;20059;-36
2023/05/31 10:48:53;;;;;;;5.22;2.20;;;22.70;99.90;;;;;;4904627;29;20056;-36
2023/05/31 10:51:19;;;;;;;5.53;2.38;;;22.80;99.90;;;;;;4903569;29;20056;-34
2023/05/31 10:53:46;;;;;;;7.30;2.25;;;22.90;99.90;;;;;;4911039;29;20111;-35
2023/05/31 10:56:13;;;;;;;4.72;1.98;;;23.00;99.90;;;;;;4898413;29;20051;-34
2023/05/31 10:58:47;;;;;;;5.78;1.85;;;23.20;99.90;;;;;;4901432;29;20092;-35
2023/05/31 11:01:14;;;;;;;5.32;2.15;;;23.20;99.90;;;;;;4908519;29;20115;-35
2023/05/31 11:03:46;;;;;;;8.48;2.10;;;23.30;99.90;;;;;;4904916;29;20495;-34
2023/05/31 11:06:14;;;;;;;5.03;1.92;;;23.40;99.90;;;;;;4908722;29;20059;-35
2023/05/31 11:09:22;;;;;;;4.03;2.13;;;23.50;99.90;;;;;;4912157;29;20091;-36
2023/05/31 11:11:50;;;;;;;5.80;2.42;;;23.60;99.90;;;;;;4899344;29;20636;-36
2023/05/31 11:14:16;;;;;;;5.07;2.00;;;23.70;99.90;;;;;;4903576;29;20049;-33
2023/05/31 11:16:48;;;;;;;4.97;2.10;;;23.80;99.90;;;;;;4901922;29;20052;-33
2023/05/31 11:19:15;;;;;;;6.15;1.80;;;23.80;99.90;;;;;;4905986;29;20490;-33
2023/05/31 11:21:54;;;;;;;5.55;2.47;;;23.90;99.90;;;;;;4904470;29;20119;-35
2023/05/31 11:24:33;;;;;;;3.75;1.70;;;24.00;99.90;;;;;;4904158;29;20521;-34
2023/05/31 11:27:00;;;;;;;6.53;1.52;;;24.10;99.90;;;;;;4901319;29;20059;-34
2023/05/31 11:29:44;;;;;;;7.82;2.38;;;24.20;99.90;;;;;;4909564;29;20061;-35
2023/05/31 11:32:14;;;;;;;4.70;1.83;;;24.40;99.90;;;;;;4907219;29;20102;-34
2023/05/31 11:35:01;;;;;;;3.85;1.85;;;24.50;99.90;;;;;;4909642;29;20112;-34
2023/05/31 11:37:31;;;;;;;6.25;1.92;;;24.50;99.90;;;;;;4909276;29;20415;-35
2023/05/31 11:40:08;;;;;;;3.58;1.67;;;24.40;99.90;;;;;;4905017;29;20044;-34
2023/05/31 11:42:39;;;;;;;4.40;1.60;;;24.40;99.90;;;;;;4906149;29;20055;-34
2023/05/31 11:45:08;;;;;;;4.43;1.83;;;24.40;99.90;;;;;;4910968;29;20503;-34
2023/05/31 11:47:49;;;;;;;6.35;2.40;;;24.40;99.90;;;;;;4900505;29;20052;-35
2023/05/31 11:50:18;;;;;;;5.57;1.98;;;24.50;99.90;;;;;;4904765;29;20055;-35
2023/05/31 11:52:45;;;;;;;3.88;1.90;;;24.50;99.90;;;;;;4906220;29;20094;-35
2023/05/31 11:55:12;;;;;;;6.20;1.40;;;24.60;99.90;;;;;;4905181;29;20518;-35
2023/05/31 11:57:51;;;;;;;3.60;1.40;;;24.70;99.90;;;;;;4900464;29;20052;-35
2023/05/31 12:00:21;;;;;;;4.82;1.70;;;24.80;99.90;;;;;;4900812;29;20058;-35
2023/05/31 12:02:54;;;;;;;4.45;2.20;;;24.90;99.90;;;;;;4902338;29;20451;-35
2023/05/31 12:05:22;;;;;;;6.45;1.80;;;25.10;99.90;;;;;;4898277;29;20159;-35
2023/05/31 12:07:51;;;;;;;3.35;2.05;;;25.20;99.90;;;;;;4906176;29;20052;-35
2023/05/31 12:10:17;;;;;;;2.85;1.33;;;25.30;99.90;;;;;;4901521;29;20143;-35
2023/05/31 12:12:46;;;;;;;7.15;2.60;;;25.40;99.90;;;;;;4903142;29;20131;-35
2023/05/31 12:15:12;;;;;;;7.30;2.83;;;25.60;99.90;;;;;;4907559;29;20062;-35
2023/05/31 12:17:39;;;;;;;5.45;1.92;;;25.70;99.90;;;;;;4904275;29;20056;-35
2023/05/31 12:20:05;;;;;;;4.53;2.33;;;25.60;99.90;;;;;;4895326;29;20060;-35
2023/05/31 12:22:31;;;;;;;6.38;2.75;;;25.70;99.90;;;;;;4903397;29;20048;-35
2023/05/31 12:24:57;;;;;;;6.07;2.40;;;25.60;99.90;;;;;;4902165;29;20115;-35
2023/05/31 12:27:25;;;;;;;6.78;2.42;;;25.70;99.90;;;;;;4906948;29;20502;-35
2023/05/31 12:29:56;;;;;;;7.85;2.75;;;25.70;99.90;;;;;;4908570;29;20135;-35
2023/05/31 12:32:21;;;;;;;9.63;2.58;;;25.70;99.90;;;;;;4907057;29;20062;-35
2023/05/31 12:34:50;;;;;;;5.32;2.30;;;25.70;99.90;;;;;;4902756;29;20059;-35
2023/05/31 12:37:15;;;;;;;8.20;2.53;;;25.70;99.90;;;;;;4907926;29;20144;-35
2023/05/31 12:39:41;;;;;;;6.30;2.45;;;25.70;99.90;;;;;;4904861;29;20127;-37
2023/05/31 12:42:07;;;;;;;6.93;2.60;;;25.80;99.90;;;;;;4906227;29;20131;-37
2023/05/31 12:44:34;;;;;;;6.32;2.42;;;25.80;99.90;;;;;;4897664;29;20511;-37
2023/05/31 12:47:06;;;;;;;4.70;2.22;;;26.00;99.90;;;;;;4894506;29;20071;-37
2023/05/31 12:49:33;;;;;;;7.40;2.40;;;26.10;99.90;;;;;;4904603;29;20063;-36